Time;durP1;ratioP1;P1;durP2;ratioP2;P2;SDS_P1;SDS_P2;PMS_P1;PMS_P2;Temp;Humidity;BMP_temperature;BMP_pressure;BME280_temperature;BME280_humidity;BME280_pressure;Samples;Min_cycle;Max_cycle;Signal;HPM_P1;HPM_P2
2023/05/17 00:02:09;;;;;;;3.93;2.50;;;8.40;99.90;;;;;;5099945;28;20232;-78
2023/05/17 00:04:36;;;;;;;6.43;2.57;;;8.30;99.90;;;;;;5102715;28;20676;-79
2023/05/17 00:07:03;;;;;;;6.67;3.07;;;8.30;99.90;;;;;;5103079;28;20220;-78
2023/05/17 00:09:31;;;;;;;9.63;3.10;;;8.30;99.90;;;;;;5103396;28;20247;-80
2023/05/17 00:11:58;;;;;;;4.97;2.83;;;8.30;99.90;;;;;;5102244;28;20698;-81
2023/05/17 00:14:24;;;;;;;6.30;2.57;;;8.20;99.90;;;;;;5101779;28;20245;-80
2023/05/17 00:16:52;;;;;;;7.27;2.60;;;8.20;99.90;;;;;;5102645;28;20202;-78
2023/05/17 00:19:18;;;;;;;5.93;2.50;;;8.20;99.90;;;;;;5102036;28;20205;-78
2023/05/17 00:21:45;;;;;;;7.77;2.30;;;8.20;99.90;;;;;;5101886;28;20251;-78
2023/05/17 00:24:12;;;;;;;8.87;2.77;;;8.40;99.90;;;;;;5102099;28;20278;-80
2023/05/17 00:26:40;;;;;;;7.17;2.73;;;8.30;99.90;;;;;;5101459;28;20224;-80
2023/05/17 00:29:07;;;;;;;6.80;2.83;;;8.30;99.90;;;;;;5101699;28;20606;-80
2023/05/17 00:31:34;;;;;;;5.33;2.50;;;8.20;99.90;;;;;;5101643;28;20548;-77
2023/05/17 00:34:01;;;;;;;6.13;2.80;;;8.20;99.90;;;;;;5101543;28;20221;-81
2023/05/17 00:36:27;;;;;;;9.27;2.93;;;8.30;99.90;;;;;;5101869;28;20213;-77
2023/05/17 00:38:54;;;;;;;4.47;2.60;;;8.20;99.90;;;;;;5102785;28;20198;-79
2023/05/17 00:41:21;;;;;;;5.90;2.47;;;8.40;99.90;;;;;;5102160;28;20217;-79
2023/05/17 00:43:49;;;;;;;8.77;2.40;;;8.40;99.90;;;;;;5102291;28;20308;-77
2023/05/17 00:46:16;;;;;;;9.90;3.20;;;8.40;99.90;;;;;;5102601;28;20213;-77
2023/05/17 00:48:43;;;;;;;11.80;4.30;;;8.50;99.90;;;;;;5102424;28;20212;-77
2023/05/17 00:51:11;;;;;;;5.40;2.77;;;8.50;99.90;;;;;;5101698;28;20197;-80
2023/05/17 00:53:39;;;;;;;6.23;2.90;;;8.50;99.90;;;;;;5101536;28;20229;-77
2023/05/17 00:56:06;;;;;;;10.23;3.53;;;8.50;99.90;;;;;;5102414;28;20297;-79
2023/05/17 00:58:33;;;;;;;6.73;3.60;;;8.40;99.90;;;;;;5101968;28;20198;-79
2023/05/17 01:01:02;;;;;;;6.53;2.87;;;8.40;99.90;;;;;;5101514;28;20235;-79
2023/05/17 01:03:28;;;;;;;7.20;3.37;;;8.40;99.90;;;;;;5098008;28;20317;-82
2023/05/17 01:05:55;;;;;;;8.03;3.13;;;8.50;99.90;;;;;;5100653;28;20562;-78
2023/05/17 01:08:22;;;;;;;6.90;2.90;;;8.50;99.90;;;;;;5100610;28;20672;-81
2023/05/17 01:10:56;;;;;;;9.23;2.97;;;8.50;99.90;;;;;;5100003;28;20288;-77
2023/05/17 01:13:32;;;;;;;6.60;2.83;;;8.50;99.90;;;;;;5100621;28;20694;-79
2023/05/17 01:16:06;;;;;;;11.67;3.83;;;8.50;99.90;;;;;;5099617;28;20205;-81
2023/05/17 01:18:39;;;;;;;11.77;3.17;;;8.50;99.90;;;;;;5099786;28;20258;-80
2023/05/17 01:21:17;;;;;;;9.80;3.80;;;8.50;99.90;;;;;;5099594;28;20190;-77
2023/05/17 01:23:51;;;;;;;8.33;3.03;;;8.50;99.90;;;;;;5100193;28;20706;-77
2023/05/17 01:26:23;;;;;;;8.97;3.43;;;8.40;99.90;;;;;;5099027;28;20186;-78
2023/05/17 01:28:53;;;;;;;12.57;3.57;;;8.40;99.90;;;;;;5100029;28;20212;-77
2023/05/17 01:31:20;;;;;;;8.10;2.87;;;8.40;99.90;;;;;;5097342;28;20666;-78
2023/05/17 01:33:47;;;;;;;13.10;3.83;;;8.40;99.90;;;;;;5100213;28;20291;-78
2023/05/17 01:36:14;;;;;;;7.87;3.20;;;8.30;99.90;;;;;;5100016;28;20205;-79
2023/05/17 01:38:41;;;;;;;8.37;3.33;;;8.30;99.90;;;;;;5100501;28;20207;-79
2023/05/17 01:41:13;;;;;;;8.83;3.00;;;8.20;99.90;;;;;;5098581;28;20209;-77
2023/05/17 01:43:46;;;;;;;8.97;2.93;;;8.20;99.90;;;;;;5100828;28;20225;-77
2023/05/17 01:46:23;;;;;;;11.53;3.53;;;8.20;99.90;;;;;;5100288;28;20197;-79
2023/05/17 01:48:56;;;;;;;12.30;3.90;;;8.20;99.90;;;;;;5100564;28;20194;-78
2023/05/17 01:51:28;;;;;;;11.70;3.30;;;8.30;99.90;;;;;;5099880;28;20194;-78
2023/05/17 01:54:01;;;;;;;10.77;3.60;;;8.20;99.90;;;;;;5099765;28;20221;-79
2023/05/17 01:56:34;;;;;;;11.37;3.80;;;8.20;99.90;;;;;;5100791;28;20639;-79
2023/05/17 01:59:04;;;;;;;19.53;6.47;;;8.10;99.90;;;;;;5104793;28;20205;-79
2023/05/17 02:01:33;;;;;;;9.97;3.20;;;8.20;99.90;;;;;;5104205;28;20212;-80
2023/05/17 02:04:00;;;;;;;7.77;3.40;;;8.20;99.90;;;;;;5104712;28;20222;-78
2023/05/17 02:06:26;;;;;;;10.90;3.73;;;8.20;99.90;;;;;;5103350;28;20674;-79
2023/05/17 02:08:53;;;;;;;13.30;3.77;;;8.10;99.90;;;;;;5103404;28;20257;-77
2023/05/17 02:11:20;;;;;;;13.03;3.50;;;8.20;99.90;;;;;;5104490;28;20229;-78
2023/05/17 02:13:47;;;;;;;9.53;3.83;;;8.20;99.90;;;;;;5103399;28;20285;-78
2023/05/17 02:16:14;;;;;;;10.83;3.30;;;8.10;99.90;;;;;;5101886;28;20201;-77
2023/05/17 02:18:42;;;;;;;12.03;3.93;;;8.40;99.90;;;;;;5099125;28;20198;-78
2023/05/17 02:21:09;;;;;;;10.23;4.00;;;8.30;99.90;;;;;;5101391;28;20292;-79
2023/05/17 02:23:36;;;;;;;14.57;3.67;;;8.30;99.90;;;;;;5099182;28;20268;-79
2023/05/17 02:26:03;;;;;;;14.30;3.97;;;8.30;99.90;;;;;;5101041;28;20202;-80
2023/05/17 02:28:30;;;;;;;9.43;4.10;;;8.30;99.90;;;;;;5101367;28;20218;-76
2023/05/17 02:30:57;;;;;;;17.73;7.07;;;8.30;99.90;;;;;;5102087;28;20198;-78
2023/05/17 02:33:23;;;;;;;13.30;4.17;;;8.40;99.90;;;;;;5102145;28;20232;-79
2023/05/17 02:35:52;;;;;;;11.23;3.77;;;8.60;99.90;;;;;;5101169;28;20295;-78
2023/05/17 02:38:18;;;;;;;11.07;4.30;;;8.50;99.90;;;;;;5102185;28;20544;-78
2023/05/17 02:40:45;;;;;;;9.80;3.50;;;8.50;99.90;;;;;;5102282;28;20292;-79
2023/05/17 02:43:12;;;;;;;10.77;4.13;;;8.60;99.90;;;;;;5101997;28;20734;-79
2023/05/17 02:45:39;;;;;;;11.33;3.90;;;8.60;99.90;;;;;;5100845;28;20235;-78
2023/05/17 02:48:06;;;;;;;12.50;3.90;;;8.70;99.90;;;;;;5095529;28;20213;-78
2023/05/17 02:50:33;;;;;;;12.90;3.77;;;8.80;99.90;;;;;;5094973;28;20244;-78
2023/05/17 02:53:01;;;;;;;10.23;3.73;;;8.80;99.90;;;;;;5095406;28;20575;-77
2023/05/17 02:55:28;;;;;;;9.57;4.03;;;8.80;99.90;;;;;;5096576;28;20225;-78
2023/05/17 02:57:55;;;;;;;13.00;3.93;;;8.90;99.90;;;;;;5092306;28;20201;-78
2023/05/17 03:00:21;;;;;;;12.13;4.10;;;8.90;99.90;;;;;;5094284;28;20676;-77
2023/05/17 03:02:48;;;;;;;14.87;3.63;;;8.90;99.90;;;;;;5094507;28;20222;-79
2023/05/17 03:05:15;;;;;;;15.17;5.37;;;8.90;99.90;;;;;;5094114;28;20285;-78
2023/05/17 03:07:42;;;;;;;13.10;4.17;;;8.90;99.90;;;;;;5093713;28;20218;-80
2023/05/17 03:10:10;;;;;;;9.70;3.60;;;8.90;99.90;;;;;;5094878;28;20300;-82
2023/05/17 03:12:37;;;;;;;10.30;4.00;;;9.00;99.90;;;;;;5095235;28;20224;-78
2023/05/17 03:15:05;;;;;;;9.20;3.67;;;9.00;99.90;;;;;;5095425;28;20297;-78
2023/05/17 03:17:32;;;;;;;9.20;3.57;;;8.90;99.90;;;;;;5076081;28;20212;-78
2023/05/17 03:19:58;;;;;;;12.87;4.20;;;8.90;99.90;;;;;;5085797;28;20210;-77
2023/05/17 03:22:27;;;;;;;14.00;4.77;;;8.90;99.90;;;;;;5091553;28;20258;-78
2023/05/17 03:24:54;;;;;;;10.00;4.73;;;8.80;99.90;;;;;;5095437;28;20621;-78
2023/05/17 03:27:22;;;;;;;10.43;4.20;;;8.70;99.90;;;;;;5094923;28;20235;-77
2023/05/17 03:29:49;;;;;;;15.07;4.03;;;8.70;99.90;;;;;;5094118;28;20202;-78
2023/05/17 03:32:15;;;;;;;13.83;4.20;;;8.60;99.90;;;;;;5093693;28;20204;-78
2023/05/17 03:34:42;;;;;;;12.13;4.00;;;8.60;99.90;;;;;;5075265;28;20273;-78
2023/05/17 03:37:09;;;;;;;11.63;4.23;;;8.60;99.90;;;;;;5075921;28;20266;-77
2023/05/17 03:39:36;;;;;;;17.27;5.03;;;8.60;99.90;;;;;;5084585;28;20206;-78
2023/05/17 03:42:03;;;;;;;12.27;4.37;;;8.50;99.90;;;;;;5096016;28;20307;-78
2023/05/17 03:44:31;;;;;;;11.30;4.90;;;8.60;99.90;;;;;;5091332;28;20638;-78
2023/05/17 03:46:58;;;;;;;10.50;3.63;;;8.50;99.90;;;;;;5095389;28;20221;-78
2023/05/17 03:49:25;;;;;;;14.93;4.53;;;8.50;99.90;;;;;;5085301;28;20241;-78
2023/05/17 03:51:52;;;;;;;12.07;4.13;;;8.40;99.90;;;;;;5074312;28;20206;-79
2023/05/17 03:54:19;;;;;;;14.53;4.20;;;8.40;99.90;;;;;;5074753;28;20314;-79
2023/05/17 03:56:47;;;;;;;12.77;3.80;;;8.40;99.90;;;;;;5073810;28;20210;-78
2023/05/17 03:59:14;;;;;;;12.57;4.50;;;8.40;99.90;;;;;;5075091;28;20578;-79
2023/05/17 04:01:44;;;;;;;12.13;3.83;;;8.50;99.90;;;;;;5074892;28;20248;-79
2023/05/17 04:04:11;;;;;;;11.47;4.50;;;8.50;99.90;;;;;;5075961;28;20222;-78
2023/05/17 04:06:38;;;;;;;12.07;4.20;;;8.80;99.90;;;;;;5075132;28;20210;-78
2023/05/17 04:09:06;;;;;;;10.97;4.20;;;8.90;99.90;;;;;;5075888;28;20229;-78
2023/05/17 04:11:33;;;;;;;14.50;4.93;;;8.80;99.90;;;;;;5094209;28;20251;-78
2023/05/17 04:14:00;;;;;;;10.87;4.00;;;8.80;99.90;;;;;;5094971;28;20613;-78
2023/05/17 04:16:26;;;;;;;9.77;3.60;;;8.60;99.90;;;;;;5094950;28;20198;-78
2023/05/17 04:18:55;;;;;;;15.77;4.37;;;8.70;99.90;;;;;;5094700;28;20204;-77
2023/05/17 04:21:21;;;;;;;12.40;4.40;;;8.60;99.90;;;;;;5106831;28;20221;-78
2023/05/17 04:23:48;;;;;;;13.40;4.83;;;8.60;99.90;;;;;;5095268;28;20281;-77
2023/05/17 04:26:15;;;;;;;15.90;3.93;;;8.60;99.90;;;;;;5090733;28;20288;-78
2023/05/17 04:28:42;;;;;;;12.73;3.90;;;8.70;99.90;;;;;;5080759;28;20232;-77
2023/05/17 04:31:09;;;;;;;10.67;3.60;;;8.80;99.90;;;;;;5071762;28;20204;-79
2023/05/17 04:33:36;;;;;;;9.60;3.83;;;8.70;99.90;;;;;;5074726;28;20226;-78
2023/05/17 04:36:05;;;;;;;14.03;3.87;;;8.70;99.90;;;;;;5073831;28;20206;-78
2023/05/17 04:38:32;;;;;;;9.83;3.57;;;8.70;99.90;;;;;;5074601;28;20213;-78
2023/05/17 04:41:03;;;;;;;12.03;4.30;;;8.70;99.90;;;;;;5076439;28;20249;-79
2023/05/17 04:43:31;;;;;;;11.00;3.50;;;8.90;99.90;;;;;;5076749;28;20575;-79
2023/05/17 04:45:58;;;;;;;13.00;3.70;;;8.90;99.90;;;;;;5076703;28;20285;-79
2023/05/17 04:48:25;;;;;;;11.40;3.20;;;8.90;99.90;;;;;;5077449;28;20230;-79
2023/05/17 04:50:53;;;;;;;10.07;3.30;;;9.00;99.90;;;;;;5077075;28;20622;-79
2023/05/17 04:53:21;;;;;;;13.37;3.30;;;9.10;99.90;;;;;;5076520;28;20393;-79
2023/05/17 04:55:48;;;;;;;10.70;3.40;;;9.20;99.90;;;;;;5076327;28;20206;-80
2023/05/17 04:58:15;;;;;;;12.07;3.53;;;9.40;99.90;;;;;;5077033;28;20259;-79
2023/05/17 05:00:42;;;;;;;13.27;3.67;;;9.30;99.90;;;;;;5076866;28;20264;-79
2023/05/17 05:03:09;;;;;;;9.47;3.70;;;9.40;99.90;;;;;;5077264;28;20222;-79
2023/05/17 05:05:36;;;;;;;13.20;3.90;;;9.40;99.90;;;;;;5081330;28;20205;-78
2023/05/17 05:08:03;;;;;;;8.63;3.47;;;9.30;99.90;;;;;;5096725;28;20308;-78
2023/05/17 05:10:31;;;;;;;7.90;3.60;;;9.30;99.90;;;;;;5090888;28;20206;-77
2023/05/17 05:12:58;;;;;;;8.93;3.27;;;9.30;99.90;;;;;;5094856;28;20248;-77
2023/05/17 05:15:25;;;;;;;14.67;3.63;;;9.10;99.90;;;;;;5079987;28;20297;-78
2023/05/17 05:17:52;;;;;;;8.27;3.43;;;9.40;99.90;;;;;;5075046;28;20582;-78
2023/05/17 05:20:19;;;;;;;9.20;3.30;;;9.20;99.90;;;;;;5074633;28;20613;-78
2023/05/17 05:22:45;;;;;;;11.83;4.00;;;9.30;99.90;;;;;;5074673;28;20328;-78
2023/05/17 05:25:12;;;;;;;14.27;3.90;;;9.40;99.90;;;;;;5086577;28;20290;-78
2023/05/17 05:27:40;;;;;;;12.50;3.30;;;9.40;99.90;;;;;;5093824;28;20202;-78
2023/05/17 05:30:08;;;;;;;10.97;3.57;;;9.40;99.90;;;;;;5093775;28;20205;-77
2023/05/17 05:32:37;;;;;;;10.77;3.10;;;9.60;99.90;;;;;;5096174;28;20497;-78
2023/05/17 05:35:05;;;;;;;13.63;4.00;;;9.60;99.90;;;;;;5097573;28;20296;-78
2023/05/17 05:37:32;;;;;;;8.17;2.97;;;9.60;99.90;;;;;;5097044;28;20209;-78
2023/05/17 05:39:59;;;;;;;10.20;3.20;;;9.90;99.90;;;;;;5098631;28;20205;-79
2023/05/17 05:42:26;;;;;;;13.50;3.47;;;9.80;99.90;;;;;;5097122;28;20208;-77
2023/05/17 05:44:54;;;;;;;11.93;2.63;;;9.50;99.90;;;;;;5096142;28;20623;-77
2023/05/17 05:47:21;;;;;;;14.53;3.03;;;9.60;99.90;;;;;;5097829;28;20208;-78
2023/05/17 05:49:48;;;;;;;8.17;2.80;;;9.50;99.90;;;;;;5097044;28;20229;-78
2023/05/17 05:52:14;;;;;;;13.70;3.57;;;9.50;99.90;;;;;;5095578;28;20205;-78
2023/05/17 05:54:43;;;;;;;10.27;2.40;;;9.60;99.90;;;;;;5086517;28;20241;-78
2023/05/17 05:57:10;;;;;;;12.07;2.80;;;9.60;99.90;;;;;;5076772;28;20206;-77
2023/05/17 05:59:37;;;;;;;11.47;2.67;;;9.80;99.90;;;;;;5077712;28;20191;-78
2023/05/17 06:02:07;;;;;;;10.30;2.67;;;9.80;99.90;;;;;;5075766;28;20207;-78
2023/05/17 06:04:34;;;;;;;10.43;3.30;;;10.00;99.90;;;;;;5077734;28;20233;-78
2023/05/17 06:07:01;;;;;;;10.70;2.60;;;10.00;99.90;;;;;;5076304;28;20214;-78
2023/05/17 06:09:27;;;;;;;10.70;3.00;;;10.30;99.90;;;;;;5077348;28;20233;-78
2023/05/17 06:11:54;;;;;;;13.33;2.17;;;10.40;99.90;;;;;;5077105;28;20631;-78
2023/05/17 06:14:21;;;;;;;6.33;1.90;;;10.20;99.90;;;;;;5081646;28;20225;-77
2023/05/17 06:16:48;;;;;;;8.87;2.37;;;10.10;99.90;;;;;;5096974;28;20207;-78
2023/05/17 06:19:16;;;;;;;9.93;2.00;;;10.20;99.90;;;;;;5097568;28;20237;-77
2023/05/17 06:21:43;;;;;;;7.17;2.40;;;10.20;99.90;;;;;;5096935;28;21031;-77
2023/05/17 06:24:10;;;;;;;10.00;2.43;;;10.20;99.90;;;;;;5096941;28;20217;-78
2023/05/17 06:26:37;;;;;;;7.93;2.17;;;10.50;99.90;;;;;;5096929;28;20270;-79
2023/05/17 06:29:04;;;;;;;12.50;2.67;;;10.60;99.90;;;;;;5090554;28;20217;-78
2023/05/17 06:31:32;;;;;;;12.70;2.90;;;10.50;99.90;;;;;;5098265;28;20202;-79
2023/05/17 06:33:58;;;;;;;12.00;2.50;;;10.50;99.90;;;;;;5082911;28;20243;-77
2023/05/17 06:36:27;;;;;;;11.20;2.27;;;10.40;99.90;;;;;;5077384;28;20210;-77
2023/05/17 06:38:53;;;;;;;8.97;3.00;;;10.30;99.90;;;;;;5077381;28;20217;-78
2023/05/17 06:41:20;;;;;;;11.83;2.33;;;10.40;99.90;;;;;;5076201;28;20217;-77
2023/05/17 06:43:47;;;;;;;11.60;2.30;;;10.50;99.90;;;;;;5076087;28;20218;-77
2023/05/17 06:46:14;;;;;;;12.17;2.50;;;10.60;99.90;;;;;;5076127;28;20664;-77
2023/05/17 06:48:40;;;;;;;12.90;2.23;;;10.50;99.90;;;;;;5075599;28;20214;-77
2023/05/17 06:51:07;;;;;;;10.33;2.40;;;10.40;99.90;;;;;;5074882;28;20202;-77
2023/05/17 06:53:35;;;;;;;8.70;2.63;;;10.50;99.90;;;;;;5076828;28;20218;-77
2023/05/17 06:56:02;;;;;;;13.30;2.80;;;10.60;99.90;;;;;;5073225;28;20234;-77
2023/05/17 06:58:29;;;;;;;11.07;2.67;;;10.50;99.90;;;;;;5076295;28;20293;-79
2023/05/17 07:00:56;;;;;;;10.37;2.67;;;10.40;99.90;;;;;;5076572;28;20219;-78
2023/05/17 07:03:23;;;;;;;11.33;2.80;;;10.50;99.90;;;;;;5076152;28;20226;-78
2023/05/17 07:05:50;;;;;;;8.53;2.77;;;10.60;99.90;;;;;;5076654;28;20210;-78
2023/05/17 07:08:17;;;;;;;11.83;2.60;;;10.50;99.90;;;;;;5076399;28;20312;-77
2023/05/17 07:10:45;;;;;;;10.17;2.43;;;10.40;99.90;;;;;;5086396;28;20734;-78
2023/05/17 07:13:12;;;;;;;11.30;2.40;;;10.40;99.90;;;;;;5096236;28;20217;-78
2023/05/17 07:15:39;;;;;;;9.93;2.87;;;10.70;99.90;;;;;;5095649;28;20197;-77
2023/05/17 07:18:06;;;;;;;12.03;2.27;;;11.10;99.90;;;;;;5093706;28;20197;-78
2023/05/17 07:20:33;;;;;;;6.93;2.30;;;11.00;99.90;;;;;;5088210;28;20213;-77
2023/05/17 07:22:59;;;;;;;7.47;1.70;;;10.70;99.90;;;;;;5076093;28;20250;-79
2023/05/17 07:25:26;;;;;;;11.73;2.67;;;11.10;99.90;;;;;;5076265;28;20217;-78
2023/05/17 07:27:55;;;;;;;6.20;1.90;;;11.20;99.90;;;;;;5075419;28;20592;-79
2023/05/17 07:30:21;;;;;;;10.97;2.07;;;11.30;99.90;;;;;;5075736;28;20222;-78
2023/05/17 07:32:48;;;;;;;8.13;2.03;;;11.40;99.90;;;;;;5075662;28;20691;-77
2023/05/17 07:35:15;;;;;;;6.63;1.90;;;11.10;99.90;;;;;;5076414;28;20205;-78
2023/05/17 07:37:42;;;;;;;7.77;1.70;;;11.10;99.90;;;;;;5075357;28;20663;-77
2023/05/17 07:40:12;;;;;;;8.23;1.80;;;11.20;99.90;;;;;;5075632;28;20202;-78
2023/05/17 07:42:39;;;;;;;6.60;1.80;;;11.10;99.90;;;;;;5074047;28;20700;-79
2023/05/17 07:45:09;;;;;;;7.20;2.17;;;11.70;99.90;;;;;;5076630;28;20217;-78
2023/05/17 07:47:35;;;;;;;4.87;1.83;;;11.60;99.90;;;;;;5074484;28;20676;-78
2023/05/17 07:50:03;;;;;;;11.63;1.83;;;11.40;99.90;;;;;;5075349;28;20702;-77
2023/05/17 07:52:30;;;;;;;6.93;1.90;;;11.10;1.00;;;;;;5073223;28;20213;-78
2023/05/17 07:54:56;;;;;;;6.83;1.80;;;11.30;1.00;;;;;;5074876;28;20212;-77
2023/05/17 07:57:23;;;;;;;7.23;1.57;;;11.10;1.00;;;;;;5079467;28;20201;-78
2023/05/17 07:59:50;;;;;;;7.77;1.83;;;11.50;1.00;;;;;;5094415;28;20193;-77
2023/05/17 08:02:18;;;;;;;7.97;1.70;;;11.50;1.00;;;;;;5093446;28;20293;-77
2023/05/17 08:04:45;;;;;;;8.93;1.80;;;11.40;1.00;;;;;;5093645;28;20205;-78
2023/05/17 08:07:12;;;;;;;8.47;2.07;;;11.60;1.00;;;;;;5092232;28;20210;-78
2023/05/17 08:09:42;;;;;;;7.87;2.00;;;11.70;1.00;;;;;;5074146;28;20244;-78
2023/05/17 08:12:09;;;;;;;7.13;1.87;;;11.60;1.00;;;;;;5075175;28;20237;-77
2023/05/17 08:14:36;;;;;;;9.40;2.57;;;11.80;1.00;;;;;;5082472;28;20709;-78
2023/05/17 08:17:02;;;;;;;7.67;2.00;;;11.60;1.00;;;;;;5095698;28;20202;-77
2023/05/17 08:19:30;;;;;;;7.57;1.80;;;11.70;1.00;;;;;;5095250;28;20201;-77
2023/05/17 08:21:58;;;;;;;7.30;1.70;;;11.70;1.00;;;;;;5095172;28;20288;-76
2023/05/17 08:24:25;;;;;;;8.30;1.53;;;11.70;99.90;;;;;;5096384;28;20748;-77
2023/05/17 08:26:52;;;;;;;11.00;2.07;;;11.80;99.90;;;;;;5095307;28;20657;-77
2023/05/17 08:29:19;;;;;;;7.20;2.00;;;12.00;99.90;;;;;;5095433;28;20312;-78
2023/05/17 08:31:46;;;;;;;4.33;1.63;;;12.10;48.30;;;;;;5092524;28;20233;-78
2023/05/17 08:34:13;;;;;;;5.50;1.70;;;12.20;1.00;;;;;;5089085;28;20734;-77
2023/05/17 08:36:41;;;;;;;6.43;2.00;;;12.30;1.00;;;;;;5092442;28;20214;-79
2023/05/17 08:39:08;;;;;;;8.13;1.93;;;12.10;1.00;;;;;;5093220;28;20641;-78
2023/05/17 08:41:35;;;;;;;10.80;2.30;;;12.20;1.00;;;;;;5074723;28;20592;-79
2023/05/17 08:44:03;;;;;;;5.03;1.67;;;12.70;1.00;;;;;;5074493;28;20221;-79
2023/05/17 08:46:31;;;;;;;8.93;1.90;;;12.50;1.00;;;;;;5074405;28;20241;-78
2023/05/17 08:49:00;;;;;;;7.77;2.00;;;12.20;99.90;;;;;;5074100;28;20233;-79
2023/05/17 08:51:28;;;;;;;6.67;1.80;;;12.10;99.90;;;;;;5073705;28;20208;-78
2023/05/17 08:53:56;;;;;;;8.87;1.60;;;11.90;1.00;;;;;;5074248;28;20218;-78
2023/05/17 08:56:25;;;;;;;10.17;2.50;;;11.80;87.30;;;;;;5073844;28;20214;-78
2023/05/17 08:58:56;;;;;;;9.53;2.10;;;11.50;1.00;;;;;;5072366;28;20209;-77
2023/05/17 09:01:23;;;;;;;8.33;2.17;;;11.60;31.40;;;;;;5071740;28;20294;-78
2023/05/17 09:03:50;;;;;;;5.10;2.00;;;11.80;1.00;;;;;;5072871;28;20222;-78
2023/05/17 09:06:20;;;;;;;5.70;1.77;;;12.00;99.90;;;;;;5075618;28;20202;-77
2023/05/17 09:08:49;;;;;;;11.43;2.20;;;12.00;99.90;;;;;;5076844;28;20199;-77
2023/05/17 09:11:25;;;;;;;7.67;2.60;;;12.70;7.10;;;;;;5077961;28;20198;-78
2023/05/17 09:13:51;;;;;;;8.23;2.30;;;13.60;44.70;;;;;;5078926;28;20229;-78
2023/05/17 09:16:20;;;;;;;4.60;2.40;;;13.50;1.00;;;;;;5078729;28;20205;-77
2023/05/17 09:18:54;;;;;;;7.10;2.47;;;13.40;1.00;;;;;;5075855;28;20202;-77
2023/05/17 09:21:21;;;;;;;5.90;2.17;;;12.50;1.00;;;;;;5078206;28;20202;-78
2023/05/17 09:23:47;;;;;;;6.83;2.80;;;12.70;1.00;;;;;;5079338;28;20219;-77
2023/05/17 09:26:16;;;;;;;7.03;2.07;;;12.50;99.90;;;;;;5077715;28;20202;-77
2023/05/17 09:28:46;;;;;;;7.73;2.37;;;12.60;1.00;;;;;;5078300;28;20206;-78
2023/05/17 09:31:16;;;;;;;9.87;2.20;;;12.50;99.90;;;;;;5077904;28;20225;-78
2023/05/17 09:33:44;;;;;;;8.20;2.30;;;12.30;1.00;;;;;;5078767;28;20226;-78
2023/05/17 09:36:18;;;;;;;5.27;2.00;;;12.00;99.90;;;;;;5077943;28;20573;-76
2023/05/17 09:38:53;;;;;;;10.90;2.30;;;12.40;99.90;;;;;;5077774;28;20648;-77
2023/05/17 09:41:20;;;;;;;11.57;3.10;;;12.50;99.90;;;;;;5076131;28;20214;-78
2023/05/17 09:43:49;;;;;;;7.73;2.30;;;12.40;99.90;;;;;;5077870;28;20646;-78
2023/05/17 09:46:16;;;;;;;9.90;3.27;;;12.30;99.90;;;;;;5078062;28;20575;-79
2023/05/17 09:48:45;;;;;;;8.27;2.37;;;12.20;99.90;;;;;;5077793;28;20206;-77
2023/05/17 09:51:12;;;;;;;9.67;2.60;;;12.40;99.90;;;;;;5077866;28;20202;-77
2023/05/17 09:53:40;;;;;;;5.27;2.53;;;12.20;26.50;;;;;;5077596;28;20222;-77
2023/05/17 09:56:07;;;;;;;11.30;2.57;;;12.60;1.00;;;;;;5076983;28;20237;-77
2023/05/17 09:58:37;;;;;;;7.97;2.20;;;12.70;1.00;;;;;;5077089;28;20198;-78
2023/05/17 10:01:07;;;;;;;9.60;2.40;;;12.60;1.00;;;;;;5076929;28;20210;-78
2023/05/17 10:03:35;;;;;;;7.57;1.57;;;13.00;1.00;;;;;;5077792;28;20252;-77
2023/05/17 10:06:05;;;;;;;6.17;1.87;;;13.10;1.00;;;;;;5079487;28;20216;-79
2023/05/17 10:08:33;;;;;;;6.40;2.33;;;13.20;1.00;;;;;;5079936;28;20279;-79
2023/05/17 10:11:05;;;;;;;5.47;2.00;;;13.40;1.00;;;;;;5079573;28;20222;-79
2023/05/17 10:13:35;;;;;;;8.53;2.00;;;14.30;1.00;;;;;;5080271;28;20249;-78
2023/05/17 10:16:03;;;;;;;5.50;2.00;;;14.80;1.00;;;;;;5080991;28;20214;-79
2023/05/17 10:18:32;;;;;;;5.93;1.40;;;14.40;99.90;;;;;;5078970;28;20213;-79
2023/05/17 10:21:00;;;;;;;7.40;1.90;;;14.30;99.90;;;;;;5087408;28;20202;-79
2023/05/17 10:23:29;;;;;;;12.43;2.50;;;14.30;99.90;;;;;;5090469;28;20217;-79
2023/05/17 10:25:56;;;;;;;10.63;2.77;;;13.90;99.90;;;;;;5096322;28;20275;-79
2023/05/17 10:28:24;;;;;;;9.73;2.20;;;14.10;99.90;;;;;;5085913;28;20719;-78
2023/05/17 10:30:53;;;;;;;6.80;1.90;;;13.80;99.90;;;;;;5092733;28;20312;-78
2023/05/17 10:33:21;;;;;;;6.17;1.70;;;13.90;99.90;;;;;;5079396;28;20222;-79
2023/05/17 10:35:50;;;;;;;7.20;1.80;;;14.10;99.90;;;;;;5088515;28;20216;-79
2023/05/17 10:38:18;;;;;;;7.63;2.20;;;14.90;99.90;;;;;;5097192;28;20254;-78
2023/05/17 10:40:46;;;;;;;3.70;1.60;;;14.50;1.00;;;;;;5095618;28;20300;-77
2023/05/17 10:43:14;;;;;;;8.23;2.40;;;14.60;1.00;;;;;;5095560;28;20222;-78
2023/05/17 10:45:41;;;;;;;5.93;2.20;;;14.50;1.00;;;;;;5091541;28;20206;-78
2023/05/17 10:48:09;;;;;;;7.50;2.20;;;14.50;1.00;;;;;;5097223;28;20205;-78
2023/05/17 10:50:39;;;;;;;11.50;2.20;;;14.00;1.00;;;;;;5096021;28;20295;-78
2023/05/17 10:53:11;;;;;;;10.77;2.10;;;14.00;1.00;;;;;;5096442;28;20598;-78
2023/05/17 10:55:40;;;;;;;8.03;2.20;;;14.40;1.00;;;;;;5097743;28;20609;-79
2023/05/17 10:58:18;;;;;;;6.73;2.10;;;15.00;1.00;;;;;;5081788;28;20208;-78
2023/05/17 11:00:49;;;;;;;8.27;2.73;;;14.40;1.00;;;;;;5075203;28;20252;-79
2023/05/17 11:03:18;;;;;;;6.60;2.67;;;14.40;1.00;;;;;;5083895;28;20279;-79
2023/05/17 11:06:12;;;;;;;7.27;2.30;;;14.10;1.00;;;;;;5097277;28;20236;-79
2023/05/17 11:08:46;;;;;;;8.03;2.27;;;14.30;1.00;;;;;;5094274;28;20567;-78
2023/05/17 11:11:16;;;;;;;4.73;2.10;;;13.90;1.00;;;;;;5096387;28;20256;-78
2023/05/17 11:13:51;;;;;;;10.30;2.53;;;13.40;99.90;;;;;;5096217;28;20223;-77
2023/05/17 11:16:20;;;;;;;7.70;2.17;;;14.00;99.90;;;;;;5097005;28;20208;-77
2023/05/17 11:18:48;;;;;;;9.50;2.40;;;14.50;99.90;;;;;;5093893;28;20201;-77
2023/05/17 11:21:16;;;;;;;6.53;2.20;;;15.10;99.90;;;;;;5093467;28;20685;-78
2023/05/17 11:23:45;;;;;;;7.63;2.10;;;15.30;99.90;;;;;;5094019;28;20703;-77
2023/05/17 11:26:22;;;;;;;4.82;1.90;;;15.90;99.90;;;;;;5094647;28;20201;-77
2023/05/17 11:28:49;;;;;;;7.77;2.07;;;16.30;99.90;;;;;;5095970;28;20300;-77
2023/05/17 11:31:16;;;;;;;5.63;2.05;;;16.10;99.90;;;;;;5096237;28;20296;-78
2023/05/17 11:33:44;;;;;;;6.50;2.20;;;15.00;77.80;;;;;;5084984;28;20313;-78
2023/05/17 11:36:18;;;;;;;4.50;2.03;;;14.60;1.00;;;;;;5076190;28;20786;-79
2023/05/17 11:38:49;;;;;;;8.05;2.55;;;15.00;1.00;;;;;;5088161;28;20206;-78
2023/05/17 11:41:20;;;;;;;6.43;2.13;;;14.70;1.00;;;;;;5095781;28;20212;-77
2023/05/17 11:43:48;;;;;;;7.70;2.57;;;14.80;1.00;;;;;;5093243;28;20229;-78
2023/05/17 11:46:22;;;;;;;6.83;2.07;;;13.70;1.00;;;;;;5094824;28;20656;-79
2023/05/17 11:48:51;;;;;;;9.13;2.10;;;14.30;1.00;;;;;;5096078;28;20573;-78
2023/05/17 11:51:19;;;;;;;6.00;2.10;;;14.70;1.00;;;;;;5078183;28;20317;-79
2023/05/17 11:53:48;;;;;;;9.77;2.27;;;15.30;1.00;;;;;;5076223;28;20226;-78
2023/05/17 11:56:15;;;;;;;6.37;2.30;;;16.30;1.00;;;;;;5075746;28;20206;-78
2023/05/17 11:58:43;;;;;;;5.13;1.93;;;15.50;1.00;;;;;;5094199;28;20217;-77
2023/05/17 12:01:18;;;;;;;5.67;2.40;;;14.90;1.00;;;;;;5130952;27;20581;-79
2023/05/17 12:03:46;;;;;;;6.30;2.20;;;14.40;1.00;;;;;;5110023;27;20352;-79
2023/05/17 12:06:16;;;;;;;4.77;2.07;;;13.80;1.00;;;;;;5114965;27;20229;-79
2023/05/17 12:08:45;;;;;;;8.93;2.80;;;14.40;1.00;;;;;;5078692;28;20305;-79
2023/05/17 12:11:14;;;;;;;7.83;2.60;;;14.40;1.00;;;;;;5063737;27;20210;-79
2023/05/17 12:13:41;;;;;;;6.00;2.63;;;15.00;1.00;;;;;;5095932;27;20215;-78
2023/05/17 12:16:11;;;;;;;6.37;2.50;;;14.80;1.00;;;;;;5062718;27;20202;-79
2023/05/17 12:18:40;;;;;;;5.30;2.40;;;15.20;1.00;;;;;;5099810;27;20298;-80
2023/05/17 12:21:09;;;;;;;6.53;2.13;;;15.20;1.00;;;;;;5049918;28;20253;-80
2023/05/17 12:23:38;;;;;;;8.87;2.90;;;16.60;1.00;;;;;;5049227;27;20219;-79
2023/05/17 12:26:07;;;;;;;7.22;2.80;;;15.90;1.00;;;;;;5055204;27;20206;-78
2023/05/17 12:28:35;;;;;;;5.95;2.83;;;17.00;1.00;;;;;;5052256;28;20199;-78
2023/05/17 12:31:03;;;;;;;5.35;2.85;;;15.70;99.90;;;;;;5113562;27;20191;-78
2023/05/17 12:33:32;;;;;;;4.93;2.47;;;15.70;99.90;;;;;;5067590;27;20712;-79
2023/05/17 12:36:02;;;;;;;7.20;2.65;;;15.90;99.90;;;;;;5107563;27;20202;-79
2023/05/17 12:38:32;;;;;;;4.35;2.13;;;15.60;99.90;;;;;;5072371;27;20198;-82
2023/05/17 12:41:00;;;;;;;4.78;1.92;;;15.00;99.90;;;;;;5117130;27;20266;-79
2023/05/17 12:43:30;;;;;;;10.55;2.10;;;14.90;99.90;;;;;;5087883;27;20591;-81
2023/05/17 12:46:03;;;;;;;6.30;2.40;;;15.00;99.90;;;;;;5078688;27;20259;-82
2023/05/17 12:48:32;;;;;;;6.45;1.98;;;15.80;99.90;;;;;;5068636;27;20633;-80
2023/05/17 12:51:07;;;;;;;3.85;1.73;;;16.10;99.90;;;;;;5094915;27;20580;-79
2023/05/17 12:53:38;;;;;;;4.80;2.10;;;16.50;99.90;;;;;;5112266;27;20312;-79
2023/05/17 12:56:06;;;;;;;6.90;1.95;;;16.30;99.90;;;;;;5142151;27;20612;-80